Cosco Singapore — 2BOW4 — position and weather

sailwx.info

Track history (hours):
 
Tides and Currents Weather Stations Pressure Air Temp Water Temp Dewpoint Dewpoint Depression Visibility Wind Speed Wind Dir Waves Ship Positions

Cosco Singapore

Last reported at 2017-Sep-19 05:18 UTC. Time now 2017-Sep-23 04:13 UTC.
Position N 39°49' E 025°48'.

Length 280 m; draft 11.7 m.

Type: Ship (hazmat cat A). MMSI: 235068032.

Date/timePositionNaut miles runAvg speedWind from/ knotsBaromVisibWave heightAir tempDewpointWater temp
2017-Sep-19 05:18N 39°49' E 025°48'1 3.7
2017-Sep-19 04:55N 39°48' E 025°49'1013.1
2017-Sep-19 04:08N 39°39' E 025°43'213.7
2017-Sep-19 03:59N 39°37' E 025°42'713.8
2017-Sep-19 03:27N 39°30' E 025°38'5214.5
2017-Sep-18 23:49N 38°43' E 025°08'1714.0
2017-Sep-18 22:36N 38°27' E 024°59'114.2
2017-Sep-18 22:30N 38°26' E 024°59'814.0
2017-Sep-18 21:57N 38°20' E 024°53'614.4
2017-Sep-18 21:30N 38°14' E 024°49'714.1
2017-Sep-18 21:00N 38°08' E 024°45'4715.2
2017-Sep-18 17:55N 37°36' E 024°01'717.8
2017-Sep-18 17:30N 37°37' E 023°52'816.8
2017-Sep-18 17:01N 37°40' E 023°42'917.5
2017-Sep-18 16:31N 37°48' E 023°37'714.9
2017-Sep-18 16:00N 37°56' E 023°36'2 4.0
2017-Sep-18 15:30N 37°57' E 023°35'0 0.0
2017-Sep-18 15:00N 37°57' E 023°35'0 0.0
2017-Sep-18 14:30N 37°57' E 023°35'0 0.0
2017-Sep-18 14:00N 37°57' E 023°35'0 0.0
2017-Sep-18 13:30N 37°57' E 023°35'0 0.0
2017-Sep-18 13:00N 37°57' E 023°35'0 0.0
2017-Sep-18 12:30N 37°57' E 023°35'0 0.1
2017-Sep-18 12:00N 37°57' E 023°35'0 0.0
2017-Sep-18 11:27N 37°57' E 023°35'0 0.0
2017-Sep-18 11:00N 37°57' E 023°35'0 0.0
2017-Sep-18 10:30N 37°57' E 023°35'0 0.0
2017-Sep-18 10:00N 37°57' E 023°35'0 0.0
2017-Sep-18 09:30N 37°57' E 023°35'0 0.0
2017-Sep-18 09:00N 37°57' E 023°35'0 0.0
2017-Sep-18 08:30N 37°57' E 023°35'0 0.0
2017-Sep-18 08:00N 37°57' E 023°35'0 0.0
2017-Sep-18 07:27N 37°57' E 023°35'0 0.0
2017-Sep-18 07:00N 37°57' E 023°35'0 0.0
2017-Sep-18 06:30N 37°57' E 023°35'0 0.0
2017-Sep-18 05:57N 37°57' E 023°35'0 0.0
2017-Sep-18 05:30N 37°57' E 023°35'0 0.0
2017-Sep-18 05:00N 37°57' E 023°35'0 0.0
2017-Sep-18 04:30N 37°57' E 023°35'2 4.7
2017-Sep-18 04:01N 37°55' E 023°35'4 7.4
2017-Sep-18 03:31N 37°52' E 023°38'2 4.1
2017-Sep-18 03:01N 37°50' E 023°39'612.3
2017-Sep-18 02:31N 37°45' E 023°43'714.6
2017-Sep-18 02:00N 37°39' E 023°48'917.1
2017-Sep-18 01:28N 37°35' E 023°59'1417.2
2017-Sep-18 00:40N 37°30' E 024°15'2416.4
2017-Sep-17 23:12N 37°23' E 024°44'418.2
2017-Sep-17 23:00N 37°22' E 024°48'917.8
2017-Sep-17 22:30N 37°19' E 024°58'918.2
2017-Sep-17 22:00N 37°17' E 025°10'918.0
2017-Sep-17 21:30N 37°16' E 025°21'918.5
2017-Sep-17 21:00N 37°16' E 025°33'917.9
2017-Sep-17 20:31N 37°14' E 025°43'  
2017-Sep-15 07:32N 32°57' E 033°20'118.3
2017-Sep-15 07:29N 32°56' E 033°19'918.3
2017-Sep-15 06:59N 32°48' E 033°15'1118.7
2017-Sep-15 06:24N 32°38' E 033°10'95 5.9
2017-Sep-14 14:23N 31°14' E 032°18'3 2.9
2017-Sep-14 13:22N 31°11' E 032°18'88 4.9
2017-Sep-13 19:31N 29°45' E 032°33'010.5
2017-Sep-13 19:30N 29°45' E 032°33'1611.6
2017-Sep-13 18:05N 29°29' E 032°38'112.8
2017-Sep-13 17:59N 29°27' E 032°38'2412.6
2017-Sep-13 16:04N 29°05' E 032°50'  
Track history (hours):
 
Tides and Currents Weather Stations Pressure Air Temp Water Temp Dewpoint Dewpoint Depression Visibility Wind Speed Wind Dir Waves Ship Positions

Cosco Singapore

Last reported at 2017-Sep-19 05:18 UTC. Time now 2017-Sep-23 04:13 UTC.
Position N 39°49' E 025°48'.

Length 280 m; draft 11.7 m.

Type: Ship (hazmat cat A). MMSI: 235068032.

Date/timePositionNaut miles runAvg speedWind from/ knotsBaromVisibWave heightAir tempDewpointWater temp
2017-Sep-19 05:18N 39°49' E 025°48'1 3.7
2017-Sep-19 04:55N 39°48' E 025°49'1013.1
2017-Sep-19 04:08N 39°39' E 025°43'213.7
2017-Sep-19 03:59N 39°37' E 025°42'713.8
2017-Sep-19 03:27N 39°30' E 025°38'5214.5
2017-Sep-18 23:49N 38°43' E 025°08'1714.0
2017-Sep-18 22:36N 38°27' E 024°59'114.2
2017-Sep-18 22:30N 38°26' E 024°59'814.0
2017-Sep-18 21:57N 38°20' E 024°53'614.4
2017-Sep-18 21:30N 38°14' E 024°49'714.1
2017-Sep-18 21:00N 38°08' E 024°45'4715.2
2017-Sep-18 17:55N 37°36' E 024°01'717.8
2017-Sep-18 17:30N 37°37' E 023°52'816.8
2017-Sep-18 17:01N 37°40' E 023°42'917.5
2017-Sep-18 16:31N 37°48' E 023°37'714.9
2017-Sep-18 16:00N 37°56' E 023°36'2 4.0
2017-Sep-18 15:30N 37°57' E 023°35'0 0.0
2017-Sep-18 15:00N 37°57' E 023°35'0 0.0
2017-Sep-18 14:30N 37°57' E 023°35'0 0.0
2017-Sep-18 14:00N 37°57' E 023°35'0 0.0
2017-Sep-18 13:30N 37°57' E 023°35'0 0.0
2017-Sep-18 13:00N 37°57' E 023°35'0 0.0
2017-Sep-18 12:30N 37°57' E 023°35'0 0.1
2017-Sep-18 12:00N 37°57' E 023°35'0 0.0
2017-Sep-18 11:27N 37°57' E 023°35'0 0.0
2017-Sep-18 11:00N 37°57' E 023°35'0 0.0
2017-Sep-18 10:30N 37°57' E 023°35'0 0.0
2017-Sep-18 10:00N 37°57' E 023°35'0 0.0
2017-Sep-18 09:30N 37°57' E 023°35'0 0.0
2017-Sep-18 09:00N 37°57' E 023°35'0 0.0
2017-Sep-18 08:30N 37°57' E 023°35'0 0.0
2017-Sep-18 08:00N 37°57' E 023°35'0 0.0
2017-Sep-18 07:27N 37°57' E 023°35'0 0.0
2017-Sep-18 07:00N 37°57' E 023°35'0 0.0
2017-Sep-18 06:30N 37°57' E 023°35'0 0.0
2017-Sep-18 05:57N 37°57' E 023°35'0 0.0
2017-Sep-18 05:30N 37°57' E 023°35'0 0.0
2017-Sep-18 05:00N 37°57' E 023°35'0 0.0
2017-Sep-18 04:30N 37°57' E 023°35'2 4.7
2017-Sep-18 04:01N 37°55' E 023°35'4 7.4
2017-Sep-18 03:31N 37°52' E 023°38'2 4.1
2017-Sep-18 03:01N 37°50' E 023°39'612.3
2017-Sep-18 02:31N 37°45' E 023°43'714.6
2017-Sep-18 02:00N 37°39' E 023°48'917.1
2017-Sep-18 01:28N 37°35' E 023°59'1417.2
2017-Sep-18 00:40N 37°30' E 024°15'2416.4
2017-Sep-17 23:12N 37°23' E 024°44'418.2
2017-Sep-17 23:00N 37°22' E 024°48'917.8
2017-Sep-17 22:30N 37°19' E 024°58'918.2
2017-Sep-17 22:00N 37°17' E 025°10'918.0
2017-Sep-17 21:30N 37°16' E 025°21'918.5
2017-Sep-17 21:00N 37°16' E 025°33'917.9
2017-Sep-17 20:31N 37°14' E 025°43'  
2017-Sep-15 07:32N 32°57' E 033°20'118.3
2017-Sep-15 07:29N 32°56' E 033°19'918.3
2017-Sep-15 06:59N 32°48' E 033°15'1118.7
2017-Sep-15 06:24N 32°38' E 033°10'95 5.9
2017-Sep-14 14:23N 31°14' E 032°18'3 2.9
2017-Sep-14 13:22N 31°11' E 032°18'88 4.9
2017-Sep-13 19:31N 29°45' E 032°33'010.5
2017-Sep-13 19:30N 29°45' E 032°33'1611.6
2017-Sep-13 18:05N 29°29' E 032°38'112.8
2017-Sep-13 17:59N 29°27' E 032°38'2412.6
2017-Sep-13 16:04N 29°05' E 032°50'  

Dump ship's entire track history